createdAt,value
2018-07-02T00:00:02.907Z,14.00
2018-07-02T00:02:31.484Z,14.00
2018-07-02T00:05:00.093Z,13.90
2018-07-02T00:07:28.763Z,13.90
2018-07-02T00:09:57.224Z,13.90
2018-07-02T00:12:26.062Z,13.90
2018-07-02T00:14:55.068Z,13.80
2018-07-02T00:17:23.568Z,13.80
2018-07-02T00:19:52.211Z,13.80
2018-07-02T00:22:20.682Z,13.70
2018-07-02T00:24:49.187Z,13.70
2018-07-02T00:27:17.719Z,13.70
2018-07-02T00:29:46.263Z,13.70
2018-07-02T00:32:14.738Z,13.60
2018-07-02T00:34:43.235Z,13.60
2018-07-02T00:37:11.711Z,13.50
2018-07-02T00:39:40.217Z,13.40
2018-07-02T00:42:08.671Z,13.30
2018-07-02T00:49:34.261Z,13.30
2018-07-02T00:52:02.825Z,13.20
2018-07-02T00:54:31.391Z,13.10
2018-07-02T00:56:59.972Z,13.10
2018-07-02T00:59:28.498Z,13.10
2018-07-02T01:01:58.668Z,13.10
2018-07-02T01:04:27.300Z,13.00
2018-07-02T01:06:56.850Z,13.00
2018-07-02T01:09:25.382Z,13.00
2018-07-02T01:11:53.856Z,12.90
2018-07-02T01:14:22.381Z,12.90
2018-07-02T01:16:50.972Z,12.80
2018-07-02T01:19:19.544Z,12.80
2018-07-02T01:21:48.046Z,12.70
2018-07-02T01:24:16.667Z,12.70
2018-07-02T01:31:41.962Z,12.70
2018-07-02T01:34:10.462Z,12.70
2018-07-02T01:36:39.085Z,12.70
2018-07-02T01:39:09.159Z,12.60
2018-07-02T01:41:37.665Z,12.60
2018-07-02T01:44:06.201Z,12.60
2018-07-02T01:46:34.668Z,12.50
2018-07-02T01:49:03.151Z,12.50
2018-07-02T01:51:31.633Z,12.40
2018-07-02T01:54:00.109Z,12.40
2018-07-02T01:56:28.658Z,12.30
2018-07-02T02:01:25.356Z,12.20
2018-07-02T02:03:53.859Z,12.20
2018-07-02T02:06:22.334Z,12.20
2018-07-02T02:08:50.835Z,12.10
2018-07-02T02:11:19.490Z,12.10
2018-07-02T02:13:48.000Z,12.10
2018-07-02T02:16:17.066Z,12.20
2018-07-02T02:18:45.564Z,12.10
2018-07-02T02:21:14.094Z,12.10
2018-07-02T02:23:42.582Z,12.10
2018-07-02T02:26:11.054Z,12.10
2018-07-02T02:28:39.524Z,12.10
2018-07-02T02:31:08.004Z,12.10
2018-07-02T02:33:36.540Z,12.10
2018-07-02T02:36:05.026Z,12.00
2018-07-02T02:38:33.535Z,12.00
2018-07-02T02:41:02.114Z,11.90
2018-07-02T02:43:30.652Z,11.90
2018-07-02T02:45:59.177Z,11.90
2018-07-02T02:48:27.664Z,11.90
2018-07-02T02:50:56.166Z,11.90
2018-07-02T02:53:24.652Z,11.80
2018-07-02T02:55:53.275Z,11.80
2018-07-02T02:58:21.846Z,11.80
2018-07-02T03:00:50.442Z,11.80
2018-07-02T03:03:18.943Z,11.80
2018-07-02T03:05:47.435Z,11.80
2018-07-02T03:08:15.903Z,11.80
2018-07-02T03:10:44.488Z,11.80
2018-07-02T03:13:13.001Z,11.70
2018-07-02T03:15:41.532Z,11.70
2018-07-02T03:18:09.997Z,11.70
2018-07-02T03:20:38.480Z,11.70
2018-07-02T03:23:07.086Z,11.70
2018-07-02T03:25:35.583Z,11.70
2018-07-02T03:28:04.095Z,11.70
2018-07-02T03:30:32.666Z,11.70
2018-07-02T03:33:01.887Z,11.70
2018-07-02T03:35:30.766Z,11.70
2018-07-02T03:37:59.776Z,11.70
2018-07-02T03:40:28.343Z,11.70
2018-07-02T03:42:56.858Z,11.60
2018-07-02T03:45:25.324Z,11.60
2018-07-02T03:47:53.806Z,11.50
2018-07-02T03:50:22.263Z,11.60
2018-07-02T03:52:50.801Z,11.60
2018-07-02T03:55:19.305Z,11.60
2018-07-02T03:57:47.971Z,11.60
2018-07-02T04:00:16.456Z,11.70
2018-07-02T04:02:44.920Z,11.70
2018-07-02T04:05:13.529Z,11.70
2018-07-02T04:07:42.063Z,11.80
2018-07-02T04:10:10.626Z,11.80
2018-07-02T04:12:39.144Z,11.80
2018-07-02T04:15:07.624Z,11.80
2018-07-02T04:17:36.098Z,11.80
2018-07-02T04:20:04.616Z,11.90
2018-07-02T04:22:33.076Z,11.90
2018-07-02T04:25:01.899Z,11.90
2018-07-02T04:27:30.404Z,12.00
2018-07-02T04:29:58.930Z,12.00
2018-07-02T04:32:27.754Z,12.00
2018-07-02T04:37:24.688Z,12.20
2018-07-02T04:39:53.284Z,12.20
2018-07-02T04:42:21.751Z,12.20
2018-07-02T04:44:50.209Z,12.30
2018-07-02T04:47:18.668Z,12.30
2018-07-02T04:49:47.172Z,12.40
2018-07-02T04:52:15.675Z,12.50
2018-07-02T04:54:44.179Z,12.50
2018-07-02T04:57:12.767Z,12.60
2018-07-02T04:59:41.268Z,12.60
2018-07-02T05:02:09.788Z,12.70
2018-07-02T05:04:38.285Z,12.80
2018-07-02T05:07:06.875Z,12.90
2018-07-02T05:09:36.059Z,12.90
2018-07-02T05:12:05.487Z,13.00
2018-07-02T05:14:34.069Z,13.10
2018-07-02T05:19:30.703Z,13.30
2018-07-02T05:21:59.205Z,13.30
2018-07-02T05:24:27.679Z,13.40
2018-07-02T05:26:56.235Z,13.50
2018-07-02T05:29:24.704Z,13.50
2018-07-02T05:31:53.178Z,13.60
2018-07-02T05:34:21.664Z,13.70
2018-07-02T05:39:18.424Z,13.70
2018-07-02T05:41:46.933Z,13.80
2018-07-02T05:44:15.377Z,13.90
2018-07-02T05:46:43.846Z,14.00
2018-07-02T05:49:12.325Z,14.10
2018-07-02T05:51:40.830Z,14.10
2018-07-02T05:54:09.372Z,14.20
2018-07-02T05:56:37.934Z,14.30
2018-07-02T05:59:06.412Z,14.40
2018-07-02T06:01:34.913Z,14.40
2018-07-02T06:04:03.381Z,14.50
2018-07-02T06:06:31.858Z,14.50
2018-07-02T06:09:00.345Z,14.50
2018-07-02T06:11:28.838Z,14.60
2018-07-02T06:13:57.381Z,14.70
2018-07-02T06:16:25.925Z,14.70
2018-07-02T06:18:54.394Z,14.80
2018-07-02T06:21:22.853Z,14.90
2018-07-02T06:23:51.313Z,15.00
2018-07-02T06:26:19.785Z,15.00
2018-07-02T06:28:48.260Z,15.00
2018-07-02T06:31:16.741Z,15.00
2018-07-02T06:33:45.221Z,15.10
2018-07-02T06:36:13.684Z,15.10
2018-07-02T06:38:42.139Z,15.20
2018-07-02T06:41:10.649Z,15.30
2018-07-02T06:43:39.132Z,15.30
2018-07-02T06:46:07.939Z,15.40
2018-07-02T06:48:37.204Z,15.40
2018-07-02T06:51:06.141Z,15.40
2018-07-02T06:53:34.657Z,15.50
2018-07-02T06:56:03.279Z,15.50
2018-07-02T06:58:31.764Z,15.60
2018-07-02T07:01:00.238Z,15.70
2018-07-02T07:03:28.710Z,15.90
2018-07-02T07:05:57.802Z,15.90
2018-07-02T07:08:26.307Z,16.10
2018-07-02T07:10:54.760Z,16.10
2018-07-02T07:13:23.308Z,16.20
2018-07-02T07:15:51.804Z,16.20
2018-07-02T07:18:20.290Z,16.30
2018-07-02T07:20:48.810Z,16.40
2018-07-02T07:23:17.361Z,16.50
2018-07-02T07:25:45.879Z,16.60
2018-07-02T07:28:14.312Z,16.80
2018-07-02T07:30:42.810Z,16.90
2018-07-02T07:33:11.288Z,17.00
2018-07-02T07:35:39.942Z,17.10
2018-07-02T07:38:08.410Z,17.10
2018-07-02T07:40:36.870Z,17.10
2018-07-02T07:43:05.381Z,17.20
2018-07-02T07:48:13.688Z,17.40
2018-07-02T07:50:42.605Z,17.70
2018-07-02T07:55:39.365Z,17.90
2018-07-02T07:58:07.897Z,17.90
2018-07-02T08:00:36.675Z,17.90
2018-07-02T08:03:05.254Z,18.00
2018-07-02T08:05:34.333Z,18.10
2018-07-02T08:08:02.949Z,18.10
2018-07-02T08:10:31.501Z,18.10
2018-07-02T08:13:00.024Z,18.10
2018-07-02T08:15:28.497Z,18.20
2018-07-02T08:17:57.009Z,18.30
2018-07-02T08:20:25.643Z,18.50
2018-07-02T08:25:22.292Z,18.50
2018-07-02T08:27:50.802Z,18.50
2018-07-02T08:32:47.573Z,18.80
2018-07-02T08:35:15.992Z,18.90
2018-07-02T08:37:44.508Z,19.10
2018-07-02T08:40:12.971Z,19.10
2018-07-02T08:42:41.434Z,19.10
2018-07-02T08:45:10.208Z,19.10
2018-07-02T08:47:38.810Z,19.10
2018-07-02T08:50:07.538Z,19.10
2018-07-02T08:52:35.987Z,19.30
2018-07-02T08:55:04.876Z,19.30
2018-07-02T08:57:33.460Z,19.40
2018-07-02T09:00:01.966Z,19.60
2018-07-02T09:02:30.452Z,19.70
2018-07-02T09:04:58.927Z,19.80
2018-07-02T09:07:27.394Z,19.80
2018-07-02T09:09:55.836Z,20.00
2018-07-02T09:12:24.302Z,20.20
2018-07-02T09:14:52.795Z,20.30
2018-07-02T09:17:21.253Z,20.20
2018-07-02T09:19:50.265Z,20.30
2018-07-02T09:22:18.769Z,20.40
2018-07-02T09:24:47.621Z,20.50
2018-07-02T09:27:16.327Z,20.40
2018-07-02T09:32:19.537Z,20.50
2018-07-02T09:34:48.034Z,20.50
2018-07-02T09:37:16.695Z,20.60
2018-07-02T09:39:45.180Z,20.60
2018-07-02T09:42:13.658Z,20.60
2018-07-02T09:44:42.224Z,20.60
2018-07-02T09:47:10.784Z,20.70
2018-07-02T09:49:39.242Z,20.80
2018-07-02T09:52:07.834Z,20.90
2018-07-02T09:54:36.273Z,20.90
2018-07-02T09:57:04.975Z,21.00
2018-07-02T09:59:33.450Z,21.00
2018-07-02T10:02:01.912Z,21.00
2018-07-02T10:04:30.439Z,21.00
2018-07-02T10:06:58.942Z,21.00
2018-07-02T10:09:27.433Z,21.10
2018-07-02T10:11:55.898Z,21.10
2018-07-02T10:16:53.489Z,21.20
2018-07-02T10:19:21.985Z,21.20
2018-07-02T10:21:50.491Z,21.10
2018-07-02T10:24:18.975Z,21.20
2018-07-02T10:26:47.445Z,21.30
2018-07-02T10:29:15.952Z,21.10
2018-07-02T10:31:44.421Z,21.00
2018-07-02T10:34:12.988Z,21.00
2018-07-02T10:36:41.465Z,20.90
2018-07-02T10:39:09.942Z,21.10
2018-07-02T10:44:07.320Z,21.50
2018-07-02T10:46:35.816Z,21.50
2018-07-02T10:49:04.341Z,21.60
2018-07-02T10:51:32.901Z,21.60
2018-07-02T10:56:29.612Z,21.40
2018-07-02T10:58:58.740Z,21.40
2018-07-02T11:01:27.398Z,21.60
2018-07-02T11:03:56.426Z,21.70
2018-07-02T11:06:25.120Z,21.70
2018-07-02T11:11:21.895Z,21.80
2018-07-02T11:13:51.071Z,21.80
2018-07-02T11:16:19.604Z,22.00
2018-07-02T11:18:48.142Z,22.20
2018-07-02T11:21:16.654Z,22.30
2018-07-02T11:23:45.200Z,22.40
2018-07-02T11:26:13.682Z,22.30
2018-07-02T11:28:42.175Z,22.30
2018-07-02T11:31:10.840Z,22.30
2018-07-02T11:33:39.367Z,22.40
2018-07-02T11:36:07.905Z,22.40
2018-07-02T11:38:36.491Z,22.50
2018-07-02T11:41:05.090Z,22.50
2018-07-02T11:43:34.457Z,22.60
2018-07-02T11:46:02.952Z,22.50
2018-07-02T11:48:31.445Z,22.40
2018-07-02T11:50:59.913Z,22.40
2018-07-02T11:55:56.634Z,22.40
2018-07-02T11:58:25.181Z,22.40
2018-07-02T12:00:53.654Z,22.40
2018-07-02T12:03:22.172Z,22.50
2018-07-02T12:05:50.661Z,22.70
2018-07-02T12:08:19.116Z,22.90
2018-07-02T12:10:47.607Z,23.00
2018-07-02T12:13:16.090Z,23.10
2018-07-02T12:15:44.590Z,23.20
2018-07-02T12:18:13.064Z,23.20
2018-07-02T12:23:09.899Z,23.40
2018-07-02T12:25:38.371Z,23.30
2018-07-02T12:28:06.911Z,23.30
2018-07-02T12:30:35.548Z,23.30
2018-07-02T12:33:04.167Z,23.50
2018-07-02T12:35:32.761Z,23.60
2018-07-02T12:40:29.496Z,23.60
2018-07-02T12:42:58.149Z,23.50
2018-07-02T12:45:26.601Z,23.30
2018-07-02T12:47:55.834Z,23.30
2018-07-02T12:50:25.121Z,23.50
2018-07-02T12:52:54.035Z,23.70
2018-07-02T12:55:22.532Z,23.70
2018-07-02T12:57:51.291Z,23.80
2018-07-02T13:00:20.032Z,23.90
2018-07-02T13:02:48.528Z,23.80
2018-07-02T13:05:17.068Z,23.90
2018-07-02T13:07:45.571Z,23.90
2018-07-02T13:10:14.143Z,23.90
2018-07-02T13:12:42.642Z,23.90
2018-07-02T13:15:11.194Z,23.90
2018-07-02T13:17:39.658Z,23.70
2018-07-02T13:20:08.201Z,23.80
2018-07-02T13:22:36.712Z,23.80
2018-07-02T13:25:05.212Z,23.90
2018-07-02T13:27:33.706Z,24.10
2018-07-02T13:30:02.216Z,24.20
2018-07-02T13:32:30.698Z,24.30
2018-07-02T13:34:59.184Z,24.20
2018-07-02T13:37:28.288Z,24.10
2018-07-02T13:39:56.793Z,24.00
2018-07-02T13:42:25.337Z,23.90
2018-07-02T13:44:53.823Z,24.00
2018-07-02T13:47:22.298Z,24.00
2018-07-02T13:49:50.786Z,24.10
2018-07-02T13:52:20.278Z,24.10
2018-07-02T13:54:48.778Z,24.20
2018-07-02T13:57:17.290Z,24.40
2018-07-02T13:59:45.794Z,24.40
2018-07-02T14:02:21.231Z,24.40
2018-07-02T14:04:49.811Z,24.50
2018-07-02T14:09:46.579Z,24.60
2018-07-02T14:12:15.059Z,24.60
2018-07-02T14:14:43.703Z,24.60
2018-07-02T14:17:12.350Z,24.60
2018-07-02T14:19:40.909Z,24.70
2018-07-02T14:22:09.428Z,24.60
2018-07-02T14:24:37.904Z,24.60
2018-07-02T14:27:06.388Z,24.50
2018-07-02T14:29:34.873Z,24.50
2018-07-02T14:32:03.354Z,24.50
2018-07-02T14:34:31.871Z,24.40
2018-07-02T14:37:00.367Z,24.40
2018-07-02T14:39:29.066Z,24.30
2018-07-02T14:41:57.559Z,24.20
2018-07-02T14:44:26.042Z,24.20
2018-07-02T14:46:55.908Z,24.30
2018-07-02T14:49:24.510Z,24.30
2018-07-02T14:51:53.021Z,24.40
2018-07-02T14:54:21.543Z,24.30
2018-07-02T14:56:50.022Z,24.40
2018-07-02T14:59:18.575Z,24.20
2018-07-02T15:01:47.118Z,24.10
2018-07-02T15:04:15.620Z,24.20
2018-07-02T15:06:44.075Z,24.20
2018-07-02T15:09:13.751Z,24.20
2018-07-02T15:11:43.147Z,24.10
2018-07-02T15:14:11.648Z,23.90
2018-07-02T15:16:40.183Z,23.90
2018-07-02T15:19:08.705Z,23.90
2018-07-02T15:21:37.169Z,23.90
2018-07-02T15:24:05.897Z,23.90
2018-07-02T15:26:34.556Z,23.90
2018-07-02T15:29:04.031Z,23.90
2018-07-02T15:31:32.520Z,24.00
2018-07-02T15:34:01.039Z,24.10
2018-07-02T15:36:29.537Z,24.10
2018-07-02T15:38:57.998Z,24.00
2018-07-02T15:41:26.541Z,24.00
2018-07-02T15:43:55.026Z,23.90
2018-07-02T15:46:23.543Z,23.80
2018-07-02T15:51:20.522Z,23.70
2018-07-02T15:53:49.027Z,23.60
2018-07-02T15:56:17.580Z,23.50
2018-07-02T16:01:15.020Z,23.50
2018-07-02T16:03:43.572Z,23.50
2018-07-02T16:06:12.092Z,23.50
2018-07-02T16:08:40.557Z,23.50
2018-07-02T16:11:09.129Z,23.50
2018-07-02T16:13:37.712Z,23.50
2018-07-02T16:16:06.178Z,23.40
2018-07-02T16:18:34.666Z,23.40
2018-07-02T16:21:03.185Z,23.40
2018-07-02T16:23:31.788Z,23.40
2018-07-02T16:26:00.378Z,23.40
2018-07-02T16:28:28.876Z,23.30
2018-07-02T16:30:57.426Z,23.30
2018-07-02T16:38:22.367Z,23.30
2018-07-02T16:43:19.187Z,23.30
2018-07-02T16:45:47.703Z,23.30
2018-07-02T16:48:16.837Z,23.20
2018-07-02T16:50:45.369Z,23.20
2018-07-02T16:53:14.046Z,23.20
2018-07-02T16:55:42.574Z,23.20
2018-07-02T17:00:39.367Z,23.00
2018-07-02T17:03:08.455Z,23.00
2018-07-02T17:05:37.294Z,22.90
2018-07-02T17:08:05.939Z,22.90
2018-07-02T17:10:34.505Z,22.90
2018-07-02T17:13:03.072Z,22.90
2018-07-02T17:15:31.639Z,22.80
2018-07-02T17:18:00.219Z,22.80
2018-07-02T17:20:28.802Z,22.80
2018-07-02T17:22:57.396Z,22.80
2018-07-02T17:25:26.088Z,22.80
2018-07-02T17:27:54.669Z,22.70
2018-07-02T17:30:23.188Z,22.70
2018-07-02T17:32:52.689Z,22.70
2018-07-02T17:35:21.223Z,22.60
2018-07-02T17:37:49.772Z,22.60
2018-07-02T17:40:19.017Z,22.60
2018-07-02T17:42:47.577Z,22.60
2018-07-02T17:45:16.080Z,22.60
2018-07-02T17:50:12.862Z,22.50
2018-07-02T17:52:41.374Z,22.50
2018-07-02T17:55:09.933Z,22.50
2018-07-02T18:00:07.356Z,22.40
2018-07-02T18:02:35.992Z,22.50
2018-07-02T18:05:05.036Z,22.40
2018-07-02T18:07:33.627Z,22.40
2018-07-02T18:10:02.308Z,22.40
2018-07-02T18:12:30.917Z,22.40
2018-07-02T18:14:59.636Z,22.30
2018-07-02T18:17:28.195Z,22.30
2018-07-02T18:19:57.006Z,22.30
2018-07-02T18:22:25.579Z,22.30
2018-07-02T18:24:54.347Z,22.30
2018-07-02T18:27:23.026Z,22.30
2018-07-02T18:29:51.765Z,22.20
2018-07-02T18:32:20.411Z,22.20
2018-07-02T18:34:49.073Z,22.20
2018-07-02T18:39:46.022Z,22.10
2018-07-02T18:42:14.857Z,22.10
2018-07-02T18:44:43.472Z,22.10
2018-07-02T18:47:12.152Z,22.10
2018-07-02T18:49:41.807Z,22.00
2018-07-02T18:52:10.698Z,22.00
2018-07-02T18:54:40.445Z,21.90
2018-07-02T18:57:09.304Z,21.90
2018-07-02T18:59:38.074Z,21.80
2018-07-02T19:02:08.539Z,21.80
2018-07-02T19:04:37.957Z,21.70
2018-07-02T19:07:07.863Z,21.60
2018-07-02T19:09:36.775Z,21.60
2018-07-02T19:12:05.764Z,21.50
2018-07-02T19:14:36.742Z,21.40
2018-07-02T19:17:07.853Z,21.20
2018-07-02T19:19:36.942Z,21.10
2018-07-02T19:22:06.223Z,21.10
2018-07-02T19:24:36.346Z,21.00
2018-07-02T19:27:05.518Z,21.00
2018-07-02T19:29:35.396Z,21.00
2018-07-02T19:32:04.360Z,20.90
2018-07-02T19:34:33.529Z,20.80
2018-07-02T19:37:03.419Z,20.70
2018-07-02T19:42:01.910Z,20.60
2018-07-02T19:44:31.073Z,20.50
2018-07-02T19:47:00.218Z,20.40
2018-07-02T19:51:58.213Z,20.40
2018-07-02T19:54:27.259Z,20.30
2018-07-02T19:56:57.182Z,20.20
2018-07-02T19:59:26.828Z,20.20
2018-07-02T20:04:24.939Z,20.10
2018-07-02T20:06:55.146Z,20.00
2018-07-02T20:09:25.016Z,19.90
2018-07-02T20:11:53.707Z,19.90
2018-07-02T20:14:23.664Z,19.80
2018-07-02T20:16:53.207Z,19.80
2018-07-02T20:19:23.057Z,19.80
2018-07-02T20:21:51.993Z,19.70
2018-07-02T20:24:20.860Z,19.70
2018-07-02T20:26:49.838Z,19.60
2018-07-02T20:29:18.788Z,19.50
2018-07-02T20:34:16.767Z,19.40
2018-07-02T20:36:45.688Z,19.30
2018-07-02T20:39:14.464Z,19.30
2018-07-02T20:41:43.212Z,19.20
2018-07-02T20:44:12.553Z,19.20
2018-07-02T20:46:41.308Z,19.10
2018-07-02T20:49:11.076Z,19.00
2018-07-02T20:51:39.842Z,19.00
2018-07-02T20:54:08.790Z,18.90
2018-07-02T20:56:38.426Z,18.80
2018-07-02T20:59:08.213Z,18.80
2018-07-02T21:01:36.769Z,18.80
2018-07-02T21:04:06.271Z,18.70
2018-07-02T21:06:35.513Z,18.70
2018-07-02T21:09:07.037Z,18.70
2018-07-02T21:11:35.652Z,18.60
2018-07-02T21:14:04.708Z,18.60
2018-07-02T21:16:33.369Z,18.60
2018-07-02T21:19:01.927Z,18.50
2018-07-02T21:21:31.165Z,18.40
2018-07-02T21:23:59.741Z,18.30
2018-07-02T21:26:28.301Z,18.30
2018-07-02T21:28:56.848Z,18.20
2018-07-02T21:31:25.355Z,18.20
2018-07-02T21:33:53.965Z,18.10
2018-07-02T21:36:22.547Z,18.10
2018-07-02T21:41:19.873Z,17.90
2018-07-02T21:43:48.409Z,17.90
2018-07-02T21:46:16.895Z,17.90
2018-07-02T21:48:45.421Z,17.90
2018-07-02T21:51:14.369Z,17.80
2018-07-02T21:53:42.883Z,17.80
2018-07-02T21:56:11.407Z,17.70
2018-07-02T21:58:39.966Z,17.70
2018-07-02T22:01:08.574Z,17.60
2018-07-02T22:03:37.110Z,17.60
2018-07-02T22:06:06.141Z,17.50
2018-07-02T22:08:34.632Z,17.50
2018-07-02T22:11:03.261Z,17.40
2018-07-02T22:13:31.712Z,17.40
2018-07-02T22:16:00.214Z,17.30
2018-07-02T22:18:28.746Z,17.30
2018-07-02T22:20:57.235Z,17.20
2018-07-02T22:25:53.952Z,17.20
2018-07-02T22:28:22.526Z,17.20
2018-07-02T22:30:51.068Z,17.10
2018-07-02T22:35:47.739Z,16.90
2018-07-02T22:38:16.251Z,16.90
2018-07-02T22:40:44.743Z,16.90
2018-07-02T22:43:13.268Z,16.90
2018-07-02T22:45:41.858Z,16.90
2018-07-02T22:48:10.367Z,16.90
2018-07-02T22:50:39.057Z,16.90
2018-07-02T22:53:07.787Z,16.80
2018-07-02T22:55:47.644Z,16.80
2018-07-02T22:58:16.147Z,16.70
2018-07-02T23:00:44.647Z,16.70
2018-07-02T23:03:13.137Z,16.60
2018-07-02T23:05:41.803Z,16.60
2018-07-02T23:08:10.463Z,16.60
2018-07-02T23:10:39.057Z,16.50
2018-07-02T23:13:07.515Z,16.50
2018-07-02T23:20:32.958Z,16.30
2018-07-02T23:23:02.786Z,16.30
2018-07-02T23:25:31.392Z,16.30
2018-07-02T23:28:01.001Z,16.20
2018-07-02T23:30:30.514Z,16.10
2018-07-02T23:32:59.304Z,16.10
2018-07-02T23:35:27.837Z,16.00
2018-07-02T23:37:56.334Z,16.00
2018-07-02T23:40:25.651Z,15.90
2018-07-02T23:42:54.989Z,15.80
2018-07-02T23:45:24.275Z,15.80
2018-07-02T23:47:52.741Z,15.80
2018-07-02T23:50:21.241Z,15.80
2018-07-02T23:52:49.745Z,15.80
2018-07-02T23:55:18.205Z,15.80
2018-07-02T23:57:47.173Z,15.80
